sensor_id;sensor_type;location;lat;lon;timestamp;P1;durP1;ratioP1;P2;durP2;ratioP2
11537;SDS011;50159;49.426;11.182;2023-06-14T00:02:00;3.30;;;3.10;;
11537;SDS011;50159;49.426;11.182;2023-06-14T00:04:27;3.17;;;2.83;;
11537;SDS011;50159;49.426;11.182;2023-06-14T00:06:55;3.07;;;2.87;;
11537;SDS011;50159;49.426;11.182;2023-06-14T00:09:22;3.53;;;3.23;;
11537;SDS011;50159;49.426;11.182;2023-06-14T00:11:49;3.67;;;3.07;;
11537;SDS011;50159;49.426;11.182;2023-06-14T00:14:16;3.07;;;2.87;;
11537;SDS011;50159;49.426;11.182;2023-06-14T00:16:42;3.73;;;3.00;;
11537;SDS011;50159;49.426;11.182;2023-06-14T00:19:09;4.10;;;3.17;;
11537;SDS011;50159;49.426;11.182;2023-06-14T00:21:37;3.50;;;3.20;;
11537;SDS011;50159;49.426;11.182;2023-06-14T00:24:04;3.23;;;3.03;;
11537;SDS011;50159;49.426;11.182;2023-06-14T00:26:32;3.10;;;3.00;;
11537;SDS011;50159;49.426;11.182;2023-06-14T00:28:58;3.67;;;3.37;;
11537;SDS011;50159;49.426;11.182;2023-06-14T00:31:25;3.53;;;3.33;;
11537;SDS011;50159;49.426;11.182;2023-06-14T00:33:52;6.63;;;3.30;;
11537;SDS011;50159;49.426;11.182;2023-06-14T00:36:19;3.33;;;3.10;;
11537;SDS011;50159;49.426;11.182;2023-06-14T00:38:45;3.30;;;3.10;;
11537;SDS011;50159;49.426;11.182;2023-06-14T00:41:12;5.10;;;3.40;;
11537;SDS011;50159;49.426;11.182;2023-06-14T00:43:39;3.43;;;3.23;;
11537;SDS011;50159;49.426;11.182;2023-06-14T00:46:05;3.40;;;3.20;;
11537;SDS011;50159;49.426;11.182;2023-06-14T00:48:32;3.33;;;3.13;;
11537;SDS011;50159;49.426;11.182;2023-06-14T00:50:59;3.30;;;3.10;;
11537;SDS011;50159;49.426;11.182;2023-06-14T00:53:30;3.67;;;3.43;;
11537;SDS011;50159;49.426;11.182;2023-06-14T00:56:00;3.57;;;3.27;;
11537;SDS011;50159;49.426;11.182;2023-06-14T00:58:27;3.40;;;3.20;;
11537;SDS011;50159;49.426;11.182;2023-06-14T01:00:57;3.97;;;3.67;;
11537;SDS011;50159;49.426;11.182;2023-06-14T01:03:24;3.70;;;3.50;;
11537;SDS011;50159;49.426;11.182;2023-06-14T01:05:53;4.40;;;3.33;;
11537;SDS011;50159;49.426;11.182;2023-06-14T01:08:35;4.97;;;3.50;;
11537;SDS011;50159;49.426;11.182;2023-06-14T01:11:28;3.83;;;3.43;;
11537;SDS011;50159;49.426;11.182;2023-06-14T01:13:59;3.60;;;3.20;;
11537;SDS011;50159;49.426;11.182;2023-06-14T01:16:29;3.40;;;3.10;;
11537;SDS011;50159;49.426;11.182;2023-06-14T01:18:58;3.37;;;3.03;;
11537;SDS011;50159;49.426;11.182;2023-06-14T01:21:25;3.47;;;3.17;;
11537;SDS011;50159;49.426;11.182;2023-06-14T01:23:54;4.30;;;3.50;;
11537;SDS011;50159;49.426;11.182;2023-06-14T01:26:21;4.20;;;3.70;;
11537;SDS011;50159;49.426;11.182;2023-06-14T01:28:49;3.40;;;3.20;;
11537;SDS011;50159;49.426;11.182;2023-06-14T01:31:17;3.10;;;3.00;;
11537;SDS011;50159;49.426;11.182;2023-06-14T01:33:48;3.67;;;3.40;;
11537;SDS011;50159;49.426;11.182;2023-06-14T01:36:18;4.03;;;3.70;;
11537;SDS011;50159;49.426;11.182;2023-06-14T01:38:47;3.77;;;3.47;;
11537;SDS011;50159;49.426;11.182;2023-06-14T01:41:16;3.47;;;3.20;;
11537;SDS011;50159;49.426;11.182;2023-06-14T01:43:45;3.50;;;3.30;;
11537;SDS011;50159;49.426;11.182;2023-06-14T01:46:13;3.33;;;3.13;;
11537;SDS011;50159;49.426;11.182;2023-06-14T01:48:41;4.03;;;3.17;;
11537;SDS011;50159;49.426;11.182;2023-06-14T01:51:08;3.53;;;3.23;;
11537;SDS011;50159;49.426;11.182;2023-06-14T01:53:35;3.63;;;3.43;;
11537;SDS011;50159;49.426;11.182;2023-06-14T01:56:02;3.53;;;3.23;;
11537;SDS011;50159;49.426;11.182;2023-06-14T01:58:29;4.53;;;3.20;;
11537;SDS011;50159;49.426;11.182;2023-06-14T02:00:57;3.23;;;3.03;;
11537;SDS011;50159;49.426;11.182;2023-06-14T02:03:24;3.87;;;3.40;;
11537;SDS011;50159;49.426;11.182;2023-06-14T02:05:51;3.13;;;3.03;;
11537;SDS011;50159;49.426;11.182;2023-06-14T02:08:18;3.60;;;3.30;;
11537;SDS011;50159;49.426;11.182;2023-06-14T02:10:45;3.70;;;3.13;;
11537;SDS011;50159;49.426;11.182;2023-06-14T02:13:11;3.17;;;3.07;;
11537;SDS011;50159;49.426;11.182;2023-06-14T02:15:38;3.40;;;3.23;;
11537;SDS011;50159;49.426;11.182;2023-06-14T02:18:06;3.60;;;3.40;;
11537;SDS011;50159;49.426;11.182;2023-06-14T02:20:33;3.20;;;2.90;;
11537;SDS011;50159;49.426;11.182;2023-06-14T02:22:59;5.00;;;3.40;;
11537;SDS011;50159;49.426;11.182;2023-06-14T02:25:27;4.80;;;3.20;;
11537;SDS011;50159;49.426;11.182;2023-06-14T02:27:54;3.30;;;3.10;;
11537;SDS011;50159;49.426;11.182;2023-06-14T02:30:21;3.30;;;3.10;;
11537;SDS011;50159;49.426;11.182;2023-06-14T02:32:48;3.33;;;3.03;;
11537;SDS011;50159;49.426;11.182;2023-06-14T02:35:17;3.17;;;2.97;;
11537;SDS011;50159;49.426;11.182;2023-06-14T02:37:44;4.10;;;3.77;;
11537;SDS011;50159;49.426;11.182;2023-06-14T02:40:11;4.07;;;3.40;;
11537;SDS011;50159;49.426;11.182;2023-06-14T02:42:38;4.23;;;3.60;;
11537;SDS011;50159;49.426;11.182;2023-06-14T02:45:05;4.23;;;3.93;;
11537;SDS011;50159;49.426;11.182;2023-06-14T02:47:32;3.97;;;3.50;;
11537;SDS011;50159;49.426;11.182;2023-06-14T02:49:59;3.53;;;3.27;;
11537;SDS011;50159;49.426;11.182;2023-06-14T02:52:26;3.60;;;3.40;;
11537;SDS011;50159;49.426;11.182;2023-06-14T02:54:52;4.07;;;3.77;;
11537;SDS011;50159;49.426;11.182;2023-06-14T02:57:20;4.57;;;3.73;;
11537;SDS011;50159;49.426;11.182;2023-06-14T02:59:48;3.60;;;3.40;;
11537;SDS011;50159;49.426;11.182;2023-06-14T03:02:15;3.83;;;3.63;;
11537;SDS011;50159;49.426;11.182;2023-06-14T03:04:42;3.70;;;3.40;;
11537;SDS011;50159;49.426;11.182;2023-06-14T03:07:10;3.60;;;3.40;;
11537;SDS011;50159;49.426;11.182;2023-06-14T03:09:39;3.70;;;3.40;;
11537;SDS011;50159;49.426;11.182;2023-06-14T03:12:06;4.47;;;3.77;;
11537;SDS011;50159;49.426;11.182;2023-06-14T03:14:33;4.30;;;3.90;;
11537;SDS011;50159;49.426;11.182;2023-06-14T03:17:01;5.07;;;3.60;;
11537;SDS011;50159;49.426;11.182;2023-06-14T03:19:28;3.70;;;3.50;;
11537;SDS011;50159;49.426;11.182;2023-06-14T03:21:55;5.27;;;3.80;;
11537;SDS011;50159;49.426;11.182;2023-06-14T03:24:24;5.00;;;3.33;;
11537;SDS011;50159;49.426;11.182;2023-06-14T03:26:51;3.33;;;3.13;;
11537;SDS011;50159;49.426;11.182;2023-06-14T03:29:17;3.50;;;3.30;;
11537;SDS011;50159;49.426;11.182;2023-06-14T03:31:57;3.80;;;3.60;;
11537;SDS011;50159;49.426;11.182;2023-06-14T03:34:24;3.30;;;3.10;;
11537;SDS011;50159;49.426;11.182;2023-06-14T03:36:51;4.13;;;3.83;;
11537;SDS011;50159;49.426;11.182;2023-06-14T03:39:18;4.93;;;3.67;;
11537;SDS011;50159;49.426;11.182;2023-06-14T03:41:46;3.50;;;3.30;;
11537;SDS011;50159;49.426;11.182;2023-06-14T03:44:16;4.10;;;3.73;;
11537;SDS011;50159;49.426;11.182;2023-06-14T03:46:45;4.10;;;3.90;;
11537;SDS011;50159;49.426;11.182;2023-06-14T03:49:12;3.87;;;3.47;;
11537;SDS011;50159;49.426;11.182;2023-06-14T03:51:39;3.83;;;3.53;;
11537;SDS011;50159;49.426;11.182;2023-06-14T03:54:06;3.80;;;3.50;;
11537;SDS011;50159;49.426;11.182;2023-06-14T03:56:53;7.73;;;3.87;;
11537;SDS011;50159;49.426;11.182;2023-06-14T03:59:20;3.60;;;3.30;;
11537;SDS011;50159;49.426;11.182;2023-06-14T04:01:47;4.03;;;3.70;;
11537;SDS011;50159;49.426;11.182;2023-06-14T04:04:15;3.77;;;3.57;;
11537;SDS011;50159;49.426;11.182;2023-06-14T04:06:44;3.60;;;3.40;;
11537;SDS011;50159;49.426;11.182;2023-06-14T04:09:14;3.83;;;3.53;;
11537;SDS011;50159;49.426;11.182;2023-06-14T04:11:40;3.40;;;3.20;;
11537;SDS011;50159;49.426;11.182;2023-06-14T04:14:07;3.33;;;3.13;;
11537;SDS011;50159;49.426;11.182;2023-06-14T04:16:34;3.40;;;3.20;;
11537;SDS011;50159;49.426;11.182;2023-06-14T04:19:01;3.47;;;3.30;;
11537;SDS011;50159;49.426;11.182;2023-06-14T04:21:28;3.80;;;3.50;;
11537;SDS011;50159;49.426;11.182;2023-06-14T04:23:55;4.00;;;3.70;;
11537;SDS011;50159;49.426;11.182;2023-06-14T04:26:22;3.60;;;3.40;;
11537;SDS011;50159;49.426;11.182;2023-06-14T04:28:56;3.47;;;3.27;;
11537;SDS011;50159;49.426;11.182;2023-06-14T04:31:28;3.67;;;3.50;;
11537;SDS011;50159;49.426;11.182;2023-06-14T04:33:56;3.87;;;3.67;;
11537;SDS011;50159;49.426;11.182;2023-06-14T04:36:22;3.63;;;3.43;;
11537;SDS011;50159;49.426;11.182;2023-06-14T04:38:49;3.73;;;3.17;;
11537;SDS011;50159;49.426;11.182;2023-06-14T04:41:20;3.57;;;3.30;;
11537;SDS011;50159;49.426;11.182;2023-06-14T04:43:49;3.93;;;3.73;;
11537;SDS011;50159;49.426;11.182;2023-06-14T04:46:16;3.67;;;3.47;;
11537;SDS011;50159;49.426;11.182;2023-06-14T04:48:43;4.13;;;3.83;;
11537;SDS011;50159;49.426;11.182;2023-06-14T04:51:11;4.20;;;3.57;;
11537;SDS011;50159;49.426;11.182;2023-06-14T04:53:39;4.07;;;3.77;;
11537;SDS011;50159;49.426;11.182;2023-06-14T04:56:06;3.30;;;3.10;;
11537;SDS011;50159;49.426;11.182;2023-06-14T04:58:33;4.10;;;3.80;;
11537;SDS011;50159;49.426;11.182;2023-06-14T05:01:00;3.63;;;3.40;;
11537;SDS011;50159;49.426;11.182;2023-06-14T05:03:27;3.80;;;3.60;;
11537;SDS011;50159;49.426;11.182;2023-06-14T05:05:56;3.83;;;3.63;;
11537;SDS011;50159;49.426;11.182;2023-06-14T05:08:23;7.60;;;3.17;;
11537;SDS011;50159;49.426;11.182;2023-06-14T05:10:50;4.60;;;3.83;;
11537;SDS011;50159;49.426;11.182;2023-06-14T05:13:17;3.40;;;3.20;;
11537;SDS011;50159;49.426;11.182;2023-06-14T05:15:44;3.53;;;3.37;;
11537;SDS011;50159;49.426;11.182;2023-06-14T05:18:11;3.33;;;3.23;;
11537;SDS011;50159;49.426;11.182;2023-06-14T05:20:39;3.40;;;3.20;;
11537;SDS011;50159;49.426;11.182;2023-06-14T05:23:08;3.43;;;3.23;;
11537;SDS011;50159;49.426;11.182;2023-06-14T05:25:44;3.77;;;3.57;;
11537;SDS011;50159;49.426;11.182;2023-06-14T05:28:11;3.47;;;3.17;;
11537;SDS011;50159;49.426;11.182;2023-06-14T05:30:38;3.40;;;3.20;;
11537;SDS011;50159;49.426;11.182;2023-06-14T05:33:08;3.67;;;3.47;;
11537;SDS011;50159;49.426;11.182;2023-06-14T05:35:35;3.00;;;2.90;;
11537;SDS011;50159;49.426;11.182;2023-06-14T05:38:01;2.87;;;2.77;;
11537;SDS011;50159;49.426;11.182;2023-06-14T05:40:28;3.60;;;3.40;;
11537;SDS011;50159;49.426;11.182;2023-06-14T05:42:55;4.37;;;3.33;;
11537;SDS011;50159;49.426;11.182;2023-06-14T05:45:22;3.00;;;2.80;;
11537;SDS011;50159;49.426;11.182;2023-06-14T05:47:49;3.40;;;3.20;;
11537;SDS011;50159;49.426;11.182;2023-06-14T05:50:16;3.20;;;3.10;;
11537;SDS011;50159;49.426;11.182;2023-06-14T05:52:43;3.57;;;3.27;;
11537;SDS011;50159;49.426;11.182;2023-06-14T05:55:10;3.70;;;3.40;;
11537;SDS011;50159;49.426;11.182;2023-06-14T05:57:39;3.03;;;2.87;;
11537;SDS011;50159;49.426;11.182;2023-06-14T06:00:06;2.97;;;2.87;;
11537;SDS011;50159;49.426;11.182;2023-06-14T06:02:37;3.30;;;3.10;;
11537;SDS011;50159;49.426;11.182;2023-06-14T06:05:04;3.20;;;3.00;;
11537;SDS011;50159;49.426;11.182;2023-06-14T06:07:32;2.93;;;2.83;;
11537;SDS011;50159;49.426;11.182;2023-06-14T06:10:02;3.17;;;2.97;;
11537;SDS011;50159;49.426;11.182;2023-06-14T06:12:30;3.20;;;3.00;;
11537;SDS011;50159;49.426;11.182;2023-06-14T06:14:56;3.53;;;3.07;;
11537;SDS011;50159;49.426;11.182;2023-06-14T06:17:24;3.33;;;3.13;;
11537;SDS011;50159;49.426;11.182;2023-06-14T06:19:51;3.00;;;2.87;;
11537;SDS011;50159;49.426;11.182;2023-06-14T06:22:18;2.77;;;2.67;;
11537;SDS011;50159;49.426;11.182;2023-06-14T06:24:44;3.00;;;2.90;;
11537;SDS011;50159;49.426;11.182;2023-06-14T06:27:11;3.00;;;2.80;;
11537;SDS011;50159;49.426;11.182;2023-06-14T06:29:38;3.20;;;3.00;;
11537;SDS011;50159;49.426;11.182;2023-06-14T06:32:05;2.87;;;2.77;;
11537;SDS011;50159;49.426;11.182;2023-06-14T06:34:32;2.97;;;2.87;;
11537;SDS011;50159;49.426;11.182;2023-06-14T06:36:59;2.90;;;2.80;;
11537;SDS011;50159;49.426;11.182;2023-06-14T06:39:26;3.20;;;3.00;;
11537;SDS011;50159;49.426;11.182;2023-06-14T06:41:53;3.20;;;2.87;;
11537;SDS011;50159;49.426;11.182;2023-06-14T06:44:20;3.00;;;2.80;;
11537;SDS011;50159;49.426;11.182;2023-06-14T06:46:46;3.50;;;3.20;;
11537;SDS011;50159;49.426;11.182;2023-06-14T06:49:13;4.60;;;3.10;;
11537;SDS011;50159;49.426;11.182;2023-06-14T06:51:43;3.73;;;3.47;;
11537;SDS011;50159;49.426;11.182;2023-06-14T06:54:24;3.17;;;2.97;;
11537;SDS011;50159;49.426;11.182;2023-06-14T06:56:51;3.13;;;2.87;;
11537;SDS011;50159;49.426;11.182;2023-06-14T06:59:18;5.03;;;3.03;;
11537;SDS011;50159;49.426;11.182;2023-06-14T07:01:44;3.30;;;3.10;;
11537;SDS011;50159;49.426;11.182;2023-06-14T07:04:11;2.90;;;2.70;;
11537;SDS011;50159;49.426;11.182;2023-06-14T07:06:39;2.93;;;2.80;;
11537;SDS011;50159;49.426;11.182;2023-06-14T07:09:05;3.47;;;3.20;;
11537;SDS011;50159;49.426;11.182;2023-06-14T07:11:34;2.70;;;2.60;;
11537;SDS011;50159;49.426;11.182;2023-06-14T07:14:01;3.00;;;2.80;;
11537;SDS011;50159;49.426;11.182;2023-06-14T07:16:27;2.97;;;2.80;;
11537;SDS011;50159;49.426;11.182;2023-06-14T07:18:54;2.83;;;2.73;;
11537;SDS011;50159;49.426;11.182;2023-06-14T07:21:21;3.27;;;3.10;;
11537;SDS011;50159;49.426;11.182;2023-06-14T07:23:48;3.10;;;2.90;;
11537;SDS011;50159;49.426;11.182;2023-06-14T07:26:14;3.10;;;2.93;;
11537;SDS011;50159;49.426;11.182;2023-06-14T07:28:41;2.83;;;2.73;;
11537;SDS011;50159;49.426;11.182;2023-06-14T07:31:11;2.87;;;2.70;;
11537;SDS011;50159;49.426;11.182;2023-06-14T07:33:39;3.00;;;2.90;;
11537;SDS011;50159;49.426;11.182;2023-06-14T07:36:06;3.20;;;3.00;;
11537;SDS011;50159;49.426;11.182;2023-06-14T07:38:33;3.07;;;2.80;;
11537;SDS011;50159;49.426;11.182;2023-06-14T07:41:00;2.77;;;2.57;;
11537;SDS011;50159;49.426;11.182;2023-06-14T07:43:27;3.23;;;3.03;;
11537;SDS011;50159;49.426;11.182;2023-06-14T07:45:54;3.07;;;2.90;;
11537;SDS011;50159;49.426;11.182;2023-06-14T07:48:33;4.47;;;2.57;;
11537;SDS011;50159;49.426;11.182;2023-06-14T07:51:00;2.90;;;2.80;;
11537;SDS011;50159;49.426;11.182;2023-06-14T07:53:27;3.13;;;2.80;;
11537;SDS011;50159;49.426;11.182;2023-06-14T07:55:54;3.40;;;3.10;;
11537;SDS011;50159;49.426;11.182;2023-06-14T07:58:21;3.10;;;2.87;;
11537;SDS011;50159;49.426;11.182;2023-06-14T08:00:48;4.67;;;2.73;;
11537;SDS011;50159;49.426;11.182;2023-06-14T08:03:15;2.87;;;2.77;;
11537;SDS011;50159;49.426;11.182;2023-06-14T08:05:42;3.13;;;2.60;;
11537;SDS011;50159;49.426;11.182;2023-06-14T08:08:09;2.73;;;2.53;;
11537;SDS011;50159;49.426;11.182;2023-06-14T08:10:35;4.30;;;2.87;;
11537;SDS011;50159;49.426;11.182;2023-06-14T08:13:02;2.67;;;2.57;;
11537;SDS011;50159;49.426;11.182;2023-06-14T08:15:29;2.77;;;2.53;;
11537;SDS011;50159;49.426;11.182;2023-06-14T08:17:56;2.70;;;2.60;;
11537;SDS011;50159;49.426;11.182;2023-06-14T08:20:23;2.80;;;2.60;;
11537;SDS011;50159;49.426;11.182;2023-06-14T08:22:50;2.83;;;2.70;;
11537;SDS011;50159;49.426;11.182;2023-06-14T08:25:21;2.50;;;2.40;;
11537;SDS011;50159;49.426;11.182;2023-06-14T08:27:48;2.53;;;2.40;;
11537;SDS011;50159;49.426;11.182;2023-06-14T08:30:15;3.27;;;2.53;;
11537;SDS011;50159;49.426;11.182;2023-06-14T08:32:43;3.40;;;2.40;;
11537;SDS011;50159;49.426;11.182;2023-06-14T08:35:11;3.03;;;2.77;;
11537;SDS011;50159;49.426;11.182;2023-06-14T08:37:39;3.03;;;2.83;;
11537;SDS011;50159;49.426;11.182;2023-06-14T08:40:20;2.73;;;2.53;;
11537;SDS011;50159;49.426;11.182;2023-06-14T08:42:54;2.70;;;2.50;;
11537;SDS011;50159;49.426;11.182;2023-06-14T08:45:22;3.40;;;3.20;;
11537;SDS011;50159;49.426;11.182;2023-06-14T08:47:53;2.50;;;2.30;;
11537;SDS011;50159;49.426;11.182;2023-06-14T08:50:25;2.77;;;2.53;;
11537;SDS011;50159;49.426;11.182;2023-06-14T08:52:57;3.60;;;2.93;;
11537;SDS011;50159;49.426;11.182;2023-06-14T08:55:29;3.20;;;2.93;;
11537;SDS011;50159;49.426;11.182;2023-06-14T08:58:01;3.53;;;2.43;;
11537;SDS011;50159;49.426;11.182;2023-06-14T09:00:29;4.17;;;2.60;;
11537;SDS011;50159;49.426;11.182;2023-06-14T09:02:56;3.37;;;3.07;;
11537;SDS011;50159;49.426;11.182;2023-06-14T09:05:25;3.90;;;2.97;;
11537;SDS011;50159;49.426;11.182;2023-06-14T09:07:53;3.20;;;3.00;;
11537;SDS011;50159;49.426;11.182;2023-06-14T09:10:30;3.10;;;2.90;;
11537;SDS011;50159;49.426;11.182;2023-06-14T09:13:03;6.50;;;2.73;;
11537;SDS011;50159;49.426;11.182;2023-06-14T09:15:30;3.33;;;3.00;;
11537;SDS011;50159;49.426;11.182;2023-06-14T09:17:57;3.20;;;2.90;;
11537;SDS011;50159;49.426;11.182;2023-06-14T09:20:28;3.40;;;3.13;;
11537;SDS011;50159;49.426;11.182;2023-06-14T09:22:56;3.00;;;2.80;;
11537;SDS011;50159;49.426;11.182;2023-06-14T09:25:23;2.93;;;2.83;;
11537;SDS011;50159;49.426;11.182;2023-06-14T09:28:06;3.10;;;2.93;;
11537;SDS011;50159;49.426;11.182;2023-06-14T09:30:34;3.37;;;3.13;;
11537;SDS011;50159;49.426;11.182;2023-06-14T09:33:03;3.67;;;3.37;;
11537;SDS011;50159;49.426;11.182;2023-06-14T09:35:33;2.60;;;2.50;;
11537;SDS011;50159;49.426;11.182;2023-06-14T09:38:00;3.40;;;3.20;;
11537;SDS011;50159;49.426;11.182;2023-06-14T09:40:27;3.53;;;3.27;;
11537;SDS011;50159;49.426;11.182;2023-06-14T09:42:54;3.10;;;2.90;;
11537;SDS011;50159;49.426;11.182;2023-06-14T09:45:24;2.57;;;2.37;;
11537;SDS011;50159;49.426;11.182;2023-06-14T09:47:55;2.60;;;2.50;;
11537;SDS011;50159;49.426;11.182;2023-06-14T09:50:33;3.07;;;2.87;;
11537;SDS011;50159;49.426;11.182;2023-06-14T09:53:07;3.00;;;2.80;;
11537;SDS011;50159;49.426;11.182;2023-06-14T09:55:36;2.80;;;2.60;;
11537;SDS011;50159;49.426;11.182;2023-06-14T09:58:05;3.03;;;2.83;;
11537;SDS011;50159;49.426;11.182;2023-06-14T10:00:34;2.90;;;2.80;;
11537;SDS011;50159;49.426;11.182;2023-06-14T10:03:12;3.10;;;2.90;;
11537;SDS011;50159;49.426;11.182;2023-06-14T10:05:41;2.30;;;2.30;;
11537;SDS011;50159;49.426;11.182;2023-06-14T10:08:15;2.40;;;2.30;;
11537;SDS011;50159;49.426;11.182;2023-06-14T10:10:44;3.33;;;3.03;;
11537;SDS011;50159;49.426;11.182;2023-06-14T10:13:12;3.23;;;3.03;;
11537;SDS011;50159;49.426;11.182;2023-06-14T10:15:52;3.10;;;2.90;;
11537;SDS011;50159;49.426;11.182;2023-06-14T10:18:44;3.93;;;2.83;;
11537;SDS011;50159;49.426;11.182;2023-06-14T10:23:48;3.47;;;3.17;;
11537;SDS011;50159;49.426;11.182;2023-06-14T10:26:20;2.80;;;2.60;;
11537;SDS011;50159;49.426;11.182;2023-06-14T10:29:01;3.07;;;2.83;;
11537;SDS011;50159;49.426;11.182;2023-06-14T10:34:12;3.00;;;2.80;;
11537;SDS011;50159;49.426;11.182;2023-06-14T10:36:46;3.43;;;3.23;;
11537;SDS011;50159;49.426;11.182;2023-06-14T10:39:40;2.97;;;2.80;;
11537;SDS011;50159;49.426;11.182;2023-06-14T10:42:08;2.90;;;2.70;;
11537;SDS011;50159;49.426;11.182;2023-06-14T10:44:40;3.23;;;3.10;;
11537;SDS011;50159;49.426;11.182;2023-06-14T10:47:10;3.07;;;2.90;;
11537;SDS011;50159;49.426;11.182;2023-06-14T10:49:49;2.67;;;2.57;;
11537;SDS011;50159;49.426;11.182;2023-06-14T10:52:20;2.60;;;2.50;;
11537;SDS011;50159;49.426;11.182;2023-06-14T10:57:40;2.73;;;2.53;;
11537;SDS011;50159;49.426;11.182;2023-06-14T11:00:12;4.23;;;2.50;;
11537;SDS011;50159;49.426;11.182;2023-06-14T11:02:46;2.80;;;2.70;;
11537;SDS011;50159;49.426;11.182;2023-06-14T11:05:14;3.20;;;2.77;;
11537;SDS011;50159;49.426;11.182;2023-06-14T11:12:57;2.57;;;2.47;;
11537;SDS011;50159;49.426;11.182;2023-06-14T11:15:28;2.93;;;2.83;;
11537;SDS011;50159;49.426;11.182;2023-06-14T11:17:57;2.43;;;2.30;;
11537;SDS011;50159;49.426;11.182;2023-06-14T11:20:27;2.87;;;2.67;;
11537;SDS011;50159;49.426;11.182;2023-06-14T11:22:56;2.57;;;2.47;;
11537;SDS011;50159;49.426;11.182;2023-06-14T11:25:22;3.10;;;2.80;;
11537;SDS011;50159;49.426;11.182;2023-06-14T11:27:49;2.90;;;2.70;;
11537;SDS011;50159;49.426;11.182;2023-06-14T11:30:17;2.37;;;2.27;;
11537;SDS011;50159;49.426;11.182;2023-06-14T11:32:47;3.03;;;2.77;;
11537;SDS011;50159;49.426;11.182;2023-06-14T11:35:16;2.83;;;2.73;;
11537;SDS011;50159;49.426;11.182;2023-06-14T11:37:44;3.93;;;3.43;;
11537;SDS011;50159;49.426;11.182;2023-06-14T11:40:11;2.83;;;2.63;;
11537;SDS011;50159;49.426;11.182;2023-06-14T11:42:39;2.50;;;2.40;;
11537;SDS011;50159;49.426;11.182;2023-06-14T11:45:07;2.90;;;2.80;;
11537;SDS011;50159;49.426;11.182;2023-06-14T11:47:41;3.23;;;2.93;;
11537;SDS011;50159;49.426;11.182;2023-06-14T11:50:08;3.33;;;2.70;;
11537;SDS011;50159;49.426;11.182;2023-06-14T11:52:36;2.73;;;2.57;;
11537;SDS011;50159;49.426;11.182;2023-06-14T11:55:04;3.43;;;2.57;;
11537;SDS011;50159;49.426;11.182;2023-06-14T11:57:35;2.90;;;2.53;;
11537;SDS011;50159;49.426;11.182;2023-06-14T12:00:08;2.50;;;2.40;;
11537;SDS011;50159;49.426;11.182;2023-06-14T12:02:38;2.77;;;2.67;;
11537;SDS011;50159;49.426;11.182;2023-06-14T12:05:07;2.30;;;2.20;;
11537;SDS011;50159;49.426;11.182;2023-06-14T12:07:36;2.63;;;2.50;;
11537;SDS011;50159;49.426;11.182;2023-06-14T12:10:06;2.60;;;2.50;;
11537;SDS011;50159;49.426;11.182;2023-06-14T12:12:35;2.97;;;2.70;;
11537;SDS011;50159;49.426;11.182;2023-06-14T12:15:06;2.97;;;2.77;;
11537;SDS011;50159;49.426;11.182;2023-06-14T12:17:34;2.80;;;2.67;;
11537;SDS011;50159;49.426;11.182;2023-06-14T12:20:06;3.53;;;2.63;;
11537;SDS011;50159;49.426;11.182;2023-06-14T12:22:37;2.77;;;2.57;;
11537;SDS011;50159;49.426;11.182;2023-06-14T12:25:04;3.17;;;2.60;;
11537;SDS011;50159;49.426;11.182;2023-06-14T12:27:31;3.03;;;2.83;;
11537;SDS011;50159;49.426;11.182;2023-06-14T12:29:59;2.40;;;2.30;;
11537;SDS011;50159;49.426;11.182;2023-06-14T12:32:27;2.80;;;2.63;;
11537;SDS011;50159;49.426;11.182;2023-06-14T12:34:55;2.80;;;2.70;;
11537;SDS011;50159;49.426;11.182;2023-06-14T12:37:21;2.53;;;2.43;;
11537;SDS011;50159;49.426;11.182;2023-06-14T12:39:48;2.87;;;2.57;;
11537;SDS011;50159;49.426;11.182;2023-06-14T12:42:16;2.33;;;2.30;;
11537;SDS011;50159;49.426;11.182;2023-06-14T12:44:43;5.17;;;2.50;;
11537;SDS011;50159;49.426;11.182;2023-06-14T12:47:10;2.53;;;2.43;;
11537;SDS011;50159;49.426;11.182;2023-06-14T12:49:38;2.67;;;2.57;;
11537;SDS011;50159;49.426;11.182;2023-06-14T12:52:06;2.47;;;2.37;;
11537;SDS011;50159;49.426;11.182;2023-06-14T12:54:33;4.77;;;2.90;;
11537;SDS011;50159;49.426;11.182;2023-06-14T12:57:06;2.30;;;2.20;;
11537;SDS011;50159;49.426;11.182;2023-06-14T12:59:34;2.47;;;2.20;;
11537;SDS011;50159;49.426;11.182;2023-06-14T13:02:16;2.50;;;2.40;;
11537;SDS011;50159;49.426;11.182;2023-06-14T13:04:44;2.40;;;2.30;;
11537;SDS011;50159;49.426;11.182;2023-06-14T13:07:11;2.43;;;1.90;;
11537;SDS011;50159;49.426;11.182;2023-06-14T13:09:37;2.47;;;2.37;;
11537;SDS011;50159;49.426;11.182;2023-06-14T13:12:04;2.60;;;2.40;;
11537;SDS011;50159;49.426;11.182;2023-06-14T13:14:31;3.50;;;2.20;;
11537;SDS011;50159;49.426;11.182;2023-06-14T13:16:58;2.27;;;2.17;;
11537;SDS011;50159;49.426;11.182;2023-06-14T13:19:25;4.00;;;2.73;;
11537;SDS011;50159;49.426;11.182;2023-06-14T13:21:52;2.70;;;2.60;;
11537;SDS011;50159;49.426;11.182;2023-06-14T13:24:19;2.00;;;2.00;;
11537;SDS011;50159;49.426;11.182;2023-06-14T13:26:45;2.30;;;2.20;;
11537;SDS011;50159;49.426;11.182;2023-06-14T13:29:12;2.40;;;2.30;;
11537;SDS011;50159;49.426;11.182;2023-06-14T13:31:39;2.77;;;2.57;;
11537;SDS011;50159;49.426;11.182;2023-06-14T13:34:06;2.67;;;2.57;;
11537;SDS011;50159;49.426;11.182;2023-06-14T13:36:32;2.90;;;2.37;;
11537;SDS011;50159;49.426;11.182;2023-06-14T13:38:59;2.13;;;2.10;;
11537;SDS011;50159;49.426;11.182;2023-06-14T13:41:27;2.17;;;2.07;;
11537;SDS011;50159;49.426;11.182;2023-06-14T13:43:58;2.63;;;2.53;;
11537;SDS011;50159;49.426;11.182;2023-06-14T13:46:25;2.20;;;2.10;;
11537;SDS011;50159;49.426;11.182;2023-06-14T13:48:52;2.37;;;2.27;;
11537;SDS011;50159;49.426;11.182;2023-06-14T13:51:18;2.20;;;2.20;;
11537;SDS011;50159;49.426;11.182;2023-06-14T13:53:47;2.50;;;2.40;;
11537;SDS011;50159;49.426;11.182;2023-06-14T13:56:15;2.03;;;2.00;;
11537;SDS011;50159;49.426;11.182;2023-06-14T13:58:42;2.60;;;2.50;;
11537;SDS011;50159;49.426;11.182;2023-06-14T14:01:09;2.20;;;2.10;;
11537;SDS011;50159;49.426;11.182;2023-06-14T14:03:35;1.97;;;1.97;;
11537;SDS011;50159;49.426;11.182;2023-06-14T14:06:03;2.53;;;2.33;;
11537;SDS011;50159;49.426;11.182;2023-06-14T14:08:30;2.07;;;1.97;;
11537;SDS011;50159;49.426;11.182;2023-06-14T14:10:57;2.13;;;2.03;;
11537;SDS011;50159;49.426;11.182;2023-06-14T14:13:24;1.80;;;1.80;;
11537;SDS011;50159;49.426;11.182;2023-06-14T14:15:51;1.77;;;1.77;;
11537;SDS011;50159;49.426;11.182;2023-06-14T14:18:18;2.07;;;2.00;;
11537;SDS011;50159;49.426;11.182;2023-06-14T14:20:47;2.47;;;2.37;;
11537;SDS011;50159;49.426;11.182;2023-06-14T14:23:14;1.93;;;1.93;;
11537;SDS011;50159;49.426;11.182;2023-06-14T14:25:41;3.03;;;2.10;;
11537;SDS011;50159;49.426;11.182;2023-06-14T14:28:08;2.50;;;2.30;;
11537;SDS011;50159;49.426;11.182;2023-06-14T14:30:35;2.20;;;2.10;;
11537;SDS011;50159;49.426;11.182;2023-06-14T14:33:05;2.80;;;2.60;;
11537;SDS011;50159;49.426;11.182;2023-06-14T14:35:33;2.43;;;2.23;;
11537;SDS011;50159;49.426;11.182;2023-06-14T14:38:00;2.53;;;2.30;;
11537;SDS011;50159;49.426;11.182;2023-06-14T14:40:29;2.90;;;2.40;;
11537;SDS011;50159;49.426;11.182;2023-06-14T14:42:56;2.60;;;2.50;;
11537;SDS011;50159;49.426;11.182;2023-06-14T14:45:22;3.33;;;2.43;;
11537;SDS011;50159;49.426;11.182;2023-06-14T14:47:49;2.30;;;2.20;;
11537;SDS011;50159;49.426;11.182;2023-06-14T14:50:17;2.53;;;2.43;;
11537;SDS011;50159;49.426;11.182;2023-06-14T14:52:44;2.03;;;2.03;;
11537;SDS011;50159;49.426;11.182;2023-06-14T14:55:11;5.33;;;2.07;;